Time;durP1;ratioP1;P1;durP2;ratioP2;P2;SDS_P1;SDS_P2;PMS_P1;PMS_P2;Temp;Humidity;BMP_temperature;BMP_pressure;BME280_temperature;BME280_humidity;BME280_pressure;Samples;Min_cycle;Max_cycle;Signal;HPM_P1;HPM_P2
2022/08/16 00:02:10;;;;;;;15.48;9.98;;;;;;;17.48;97.73;93885.03;1749407;81;21057;-49
2022/08/16 00:04:37;;;;;;;20.15;10.40;;;;;;;17.46;97.07;93882.02;1750730;79;21494;-50
2022/08/16 00:07:05;;;;;;;14.33;10.15;;;;;;;17.42;97.13;93879.48;1725001;81;22312;-50
2022/08/16 00:09:33;;;;;;;14.38;11.08;;;;;;;17.38;97.13;93876.23;1742720;79;21002;-50
2022/08/16 00:12:02;;;;;;;14.75;10.30;;;;;;;17.37;97.00;93887.84;1750766;80;21014;-50
2022/08/16 00:14:31;;;;;;;18.00;10.15;;;;;;;17.35;96.92;93894.55;1750670;81;21046;-50
2022/08/16 00:16:59;;;;;;;18.92;9.65;;;;;;;17.32;97.05;93886.56;1754000;81;21158;-50
2022/08/16 00:19:30;;;;;;;14.13;10.05;;;;;;;17.28;97.01;93885.33;1756147;81;21076;-50
2022/08/16 00:21:58;;;;;;;14.93;9.70;;;;;;;17.23;97.64;93887.48;1754084;81;21104;-50
2022/08/16 00:24:27;;;;;;;13.88;9.80;;;;;;;17.23;98.26;93886.86;1751267;81;21431;-49
2022/08/16 00:26:54;;;;;;;20.55;9.25;;;;;;;17.21;97.74;93883.06;1751232;81;21455;-51
2022/08/16 00:29:22;;;;;;;19.52;10.93;;;;;;;17.19;97.25;93886.38;1755564;81;20958;-51
2022/08/16 00:31:50;;;;;;;11.55;9.35;;;;;;;17.14;97.01;93881.59;1748789;80;21057;-50
2022/08/16 00:34:19;;;;;;;17.90;9.75;;;;;;;17.12;96.91;93887.53;1749009;79;21006;-50
2022/08/16 00:36:48;;;;;;;16.57;10.15;;;;;;;17.04;96.85;93884.52;1751740;80;21061;-50
2022/08/16 00:39:16;;;;;;;12.47;9.43;;;;;;;16.98;97.17;93880.23;1752426;81;21501;-50
2022/08/16 00:41:46;;;;;;;11.70;9.40;;;;;;;16.96;97.71;93884.92;1752265;81;20954;-50
2022/08/16 00:44:14;;;;;;;18.20;9.18;;;;;;;16.98;98.32;93888.56;1749348;81;22032;-50
2022/08/16 00:46:56;;;;;;;16.35;10.00;;;;;;;17.03;98.70;93886.41;1754781;81;21434;-49
2022/08/16 00:49:24;;;;;;;23.05;10.58;;;;;;;17.03;98.25;93880.84;1753436;81;20978;-50
2022/08/16 00:51:52;;;;;;;15.63;9.15;;;;;;;16.99;98.37;93876.19;1724999;81;21006;-50
2022/08/16 00:54:20;;;;;;;15.78;9.70;;;;;;;16.91;98.54;93877.34;1694714;82;21006;-50
2022/08/16 00:56:48;;;;;;;13.15;9.38;;;;;;;16.87;98.82;93883.05;1718811;82;21762;-50
2022/08/16 00:59:16;;;;;;;22.35;13.65;;;;;;;16.86;99.01;93881.52;1673542;83;21446;-50
2022/08/16 01:01:44;;;;;;;28.30;16.67;;;;;;;16.81;98.77;93885.06;1712484;83;20982;-51
2022/08/16 01:04:13;;;;;;;28.75;13.85;;;;;;;16.78;99.50;93882.69;1728330;82;21064;-50
2022/08/16 01:06:42;;;;;;;21.17;14.40;;;;;;;16.81;99.76;93886.45;1748369;81;21037;-50
2022/08/16 01:09:09;;;;;;;26.30;14.28;;;;;;;16.81;99.34;93883.67;1729913;80;21970;-50
2022/08/16 01:11:37;;;;;;;44.90;22.00;;;;;;;16.83;99.85;93881.14;1737551;81;21557;-50
2022/08/16 01:14:24;;;;;;;37.45;21.00;;;;;;;16.85;99.42;93871.05;1729304;80;21185;-50
2022/08/16 01:16:52;;;;;;;36.13;20.23;;;;;;;16.82;99.01;93874.08;1737824;81;21423;-49
2022/08/16 01:19:26;;;;;;;16.60;10.70;;;;;;;16.80;99.27;93880.77;1749828;80;21001;-50
2022/08/16 01:22:02;;;;;;;17.17;8.95;;;;;;;16.76;99.13;93871.95;1751412;80;21201;-50
2022/08/16 01:24:47;;;;;;;15.88;9.03;;;;;;;16.70;99.75;93865.00;1724570;82;21112;-49
2022/08/16 01:27:21;;;;;;;12.25;9.10;;;;;;;16.69;99.80;93868.31;1726862;82;21027;-51
2022/08/16 01:30:05;;;;;;;13.18;9.70;;;;;;;16.67;100.00;93870.19;1726292;82;20983;-51
2022/08/16 01:32:35;;;;;;;16.97;10.15;;;;;;;16.64;99.41;93864.88;1717729;82;21042;-50
2022/08/16 01:35:20;;;;;;;22.93;11.03;;;;;;;16.59;99.00;93860.10;1730960;82;21119;-50
2022/08/16 01:37:51;;;;;;;16.55;10.58;;;;;;;16.53;98.90;93859.36;1729254;82;21136;-50
2022/08/16 01:40:25;;;;;;;22.45;11.25;;;;;;;16.49;99.28;93857.45;1730415;82;21007;-50
2022/08/16 01:42:54;;;;;;;22.37;14.20;;;;;;;16.48;99.43;93849.00;1739944;82;20959;-50
2022/08/16 01:45:22;;;;;;;22.77;12.73;;;;;;;16.47;99.80;93844.70;1752001;80;21643;-50
2022/08/16 01:47:51;;;;;;;23.18;13.38;;;;;;;16.48;99.87;93844.83;1708152;81;21208;-50
2022/08/16 01:50:19;;;;;;;18.92;10.32;;;;;;;16.50;99.92;93839.52;1724551;80;21002;-50
2022/08/16 01:52:48;;;;;;;17.85;9.93;;;;;;;16.48;99.93;93837.89;1749963;80;21573;-50
2022/08/16 01:55:18;;;;;;;17.80;9.73;;;;;;;16.45;100.00;93840.30;1749306;81;21045;-51
2022/08/16 01:57:46;;;;;;;16.62;9.45;;;;;;;16.42;99.84;93835.14;1747862;82;21537;-50
2022/08/16 02:00:15;;;;;;;21.35;9.60;;;;;;;16.37;99.43;93840.70;1710281;82;21094;-51
2022/08/16 02:02:42;;;;;;;12.37;8.93;;;;;;;16.37;99.58;93832.36;1743617;79;20998;-50
2022/08/16 02:05:12;;;;;;;15.53;9.90;;;;;;;16.36;99.53;93832.98;1750182;79;20994;-50
2022/08/16 02:07:40;;;;;;;18.05;10.82;;;;;;;16.31;99.22;93834.34;1751547;81;21002;-48
2022/08/16 02:10:08;;;;;;;21.60;11.95;;;;;;;16.29;99.35;93832.70;1752006;81;21049;-48
2022/08/16 02:12:38;;;;;;;17.98;11.10;;;;;;;16.27;99.37;93825.52;1749975;80;21853;-50
2022/08/16 02:15:07;;;;;;;20.10;10.35;;;;;;;16.27;99.62;93825.52;1708519;82;20969;-49
2022/08/16 02:17:35;;;;;;;17.32;9.80;;;;;;;16.31;99.73;93830.17;1750387;81;20954;-50
2022/08/16 02:20:05;;;;;;;14.23;9.05;;;;;;;16.30;99.22;93825.89;1748456;81;21002;-50
2022/08/16 02:22:33;;;;;;;14.70;9.20;;;;;;;16.28;98.99;93829.06;1752208;79;21405;-50
2022/08/16 02:25:00;;;;;;;10.82;9.43;;;;;;;16.24;98.85;93831.34;1725785;80;21177;-49
2022/08/16 02:27:28;;;;;;;10.55;8.93;;;;;;;16.19;99.00;93821.75;1749208;80;21002;-49
2022/08/16 02:29:56;;;;;;;16.90;9.43;;;;;;;16.19;99.06;93825.91;1751815;80;21219;-49
2022/08/16 02:32:24;;;;;;;17.57;9.73;;;;;;;16.18;99.00;93827.79;1725901;82;21435;-49
2022/08/16 02:34:52;;;;;;;16.00;10.03;;;;;;;16.16;99.33;93833.86;1729008;82;21035;-50
2022/08/16 02:37:20;;;;;;;15.25;8.88;;;;;;;16.18;99.67;93829.95;1704462;82;21213;-51
2022/08/16 02:39:49;;;;;;;16.93;9.33;;;;;;;16.19;99.44;93839.79;1682796;82;20998;-49
2022/08/16 02:42:18;;;;;;;12.10;9.15;;;;;;;16.20;99.24;93828.81;1745295;81;21088;-49
2022/08/16 02:44:46;;;;;;;13.98;8.90;;;;;;;16.20;98.79;93830.20;1751923;79;20970;-49
2022/08/16 02:47:15;;;;;;;10.45;8.70;;;;;;;16.16;98.25;93828.31;1751912;81;21478;-49
2022/08/16 02:49:43;;;;;;;14.30;9.93;;;;;;;16.12;98.47;93831.20;1753792;81;21128;-49
2022/08/16 02:52:11;;;;;;;14.80;8.98;;;;;;;16.06;98.53;93829.81;1728498;82;20979;-50
2022/08/16 02:54:40;;;;;;;13.15;9.50;;;;;;;15.98;98.64;93828.81;1727600;82;21050;-50
2022/08/16 02:57:07;;;;;;;12.03;9.13;;;;;;;15.95;99.12;93836.73;1724357;80;21653;-51
2022/08/16 02:59:36;;;;;;;10.93;8.93;;;;;;;15.96;99.76;93835.50;1747689;80;20994;-50
2022/08/16 03:02:04;;;;;;;20.65;11.10;;;;;;;16.02;100.00;93840.41;1750052;81;21827;-50
2022/08/16 03:04:33;;;;;;;17.87;10.72;;;;;;;16.04;99.94;93845.44;1753266;80;21026;-50
2022/08/16 03:07:01;;;;;;;24.50;11.20;;;;;;;15.99;99.74;93844.20;1753037;81;20989;-50
2022/08/16 03:09:34;;;;;;;;;;;;;;;15.94;99.58;93839.38;1745677;80;20982;-51
2022/08/16 03:12:02;;;;;;;20.32;10.65;;;;;;;15.92;100.00;93832.84;1724428;80;20474;-51
2022/08/16 03:14:30;;;;;;;15.75;10.35;;;;;;;15.92;100.00;93839.12;1752780;79;21946;-50
2022/08/16 03:16:58;;;;;;;22.62;12.55;;;;;;;15.97;100.00;93826.53;1749181;79;21085;-50
2022/08/16 03:19:29;;;;;;;17.80;11.48;;;;;;;16.04;100.00;93828.17;1753036;81;21487;-48
2022/08/16 03:21:57;;;;;;;18.00;11.22;;;;;;;16.15;100.00;93837.13;1751174;81;20958;-50
2022/08/16 03:24:27;;;;;;;20.25;11.55;;;;;;;16.22;100.00;93832.45;1754077;81;20994;-50
2022/08/16 03:26:57;;;;;;;18.65;10.68;;;;;;;16.28;100.00;93834.61;1751981;81;21140;-49
2022/08/16 03:29:27;;;;;;;14.47;10.08;;;;;;;16.33;100.00;93842.95;1747582;81;20985;-50
2022/08/16 03:31:55;;;;;;;16.95;10.35;;;;;;;16.35;100.00;93845.35;1747723;81;20954;-50
2022/08/16 03:34:24;;;;;;;17.37;11.85;;;;;;;16.33;100.00;93847.11;1722949;81;21539;-50
2022/08/16 03:36:52;;;;;;;22.32;12.18;;;;;;;16.31;100.00;93857.31;1739701;81;21021;-50
2022/08/16 03:39:20;;;;;;;21.97;9.68;;;;;;;16.33;100.00;93850.63;1750443;80;21232;-50
2022/08/16 03:41:49;;;;;;;18.50;11.38;;;;;;;16.37;100.00;93850.41;1737016;82;21550;-50
2022/08/16 03:44:16;;;;;;;13.65;9.68;;;;;;;16.34;100.00;93854.94;1730428;82;21082;-49
2022/08/16 03:46:45;;;;;;;22.45;10.38;;;;;;;16.33;100.00;93866.54;1735991;81;20965;-49
2022/08/16 03:49:14;;;;;;;17.10;10.32;;;;;;;16.31;100.00;93867.03;1725535;82;21014;-49
2022/08/16 03:51:44;;;;;;;14.25;9.38;;;;;;;16.32;100.00;93867.77;1722471;82;21132;-49
2022/08/16 03:54:14;;;;;;;19.95;9.25;;;;;;;16.32;99.94;93874.72;1721219;82;20951;-49
2022/08/16 03:56:43;;;;;;;15.88;9.88;;;;;;;16.34;100.00;93874.99;1725960;82;20951;-49
2022/08/16 03:59:12;;;;;;;17.82;11.43;;;;;;;16.34;100.00;93870.21;1714773;81;21069;-50
2022/08/16 04:01:42;;;;;;;18.95;11.95;;;;;;;16.37;100.00;93873.36;1714014;82;20986;-50
2022/08/16 04:04:10;;;;;;;18.05;11.83;;;;;;;16.43;100.00;93873.36;1714720;82;21793;-51
2022/08/16 04:06:38;;;;;;;24.35;11.03;;;;;;;16.48;100.00;93871.20;1723842;82;21045;-51
2022/08/16 04:09:06;;;;;;;15.20;9.65;;;;;;;16.48;100.00;93874.75;1724136;82;21034;-49
2022/08/16 04:11:35;;;;;;;14.83;10.82;;;;;;;16.48;100.00;93871.98;1723798;82;21049;-49
2022/08/16 04:14:03;;;;;;;17.62;9.95;;;;;;;16.49;100.00;93868.55;1730324;82;21008;-50
2022/08/16 04:16:33;;;;;;;17.10;9.53;;;;;;;16.53;100.00;93866.30;1734337;82;21141;-50
2022/08/16 04:19:03;;;;;;;17.85;10.18;;;;;;;16.60;100.00;93863.77;1657474;81;20965;-51
2022/08/16 04:21:32;;;;;;;19.65;9.98;;;;;;;16.64;99.84;93860.72;1688621;83;21032;-50
2022/08/16 04:24:00;;;;;;;17.65;11.10;;;;;;;16.63;99.52;93864.14;1656717;83;21017;-49
2022/08/16 04:26:27;;;;;;;20.68;9.90;;;;;;;16.63;99.54;93868.93;1750545;80;21050;-50
2022/08/16 04:28:55;;;;;;;16.82;9.75;;;;;;;16.67;99.98;93870.81;1750784;81;21214;-50
2022/08/16 04:31:23;;;;;;;11.78;9.30;;;;;;;16.74;99.91;93866.14;1751135;81;21430;-50
2022/08/16 04:33:57;;;;;;;16.73;10.00;;;;;;;16.79;99.69;93869.53;1726948;81;21132;-49
2022/08/16 04:36:22;;;;;;;18.57;10.35;;;;;;;16.80;99.47;93862.09;1750238;80;20942;-49
2022/08/16 04:38:51;;;;;;;18.87;9.58;;;;;;;16.81;99.59;93864.23;1751066;79;21061;-50
2022/08/16 04:41:19;;;;;;;10.60;8.28;;;;;;;16.82;99.63;93869.91;1748904;81;21111;-50
2022/08/16 04:43:48;;;;;;;18.42;9.70;;;;;;;16.84;99.72;93874.32;1752524;81;21588;-49
2022/08/16 04:46:16;;;;;;;21.48;11.78;;;;;;;16.85;99.78;93871.05;1750485;80;21414;-50
2022/08/16 04:48:44;;;;;;;17.27;11.63;;;;;;;16.83;99.67;93870.03;1732849;82;21491;-50
2022/08/16 04:51:12;;;;;;;24.50;12.20;;;;;;;16.83;99.93;93869.41;1700195;82;20982;-49
2022/08/16 04:53:48;;;;;;;15.83;10.63;;;;;;;16.87;99.97;93866.37;1718967;82;21824;-49
2022/08/16 04:56:17;;;;;;;13.32;10.72;;;;;;;16.91;100.00;93858.53;1726203;82;20990;-51
2022/08/16 04:58:45;;;;;;;24.20;14.18;;;;;;;17.00;100.00;93860.41;1734695;82;21009;-49
2022/08/16 05:01:16;;;;;;;54.85;14.43;;;;;;;17.09;100.00;93860.77;1722052;82;21001;-50
2022/08/16 05:03:44;;;;;;;19.70;14.00;;;;;;;17.20;100.00;93862.09;1732289;82;21014;-50
2022/08/16 05:06:13;;;;;;;20.12;14.60;;;;;;;17.26;99.79;93858.68;1720474;82;21238;-50
2022/08/16 05:08:40;;;;;;;29.98;17.52;;;;;;;17.30;99.72;93848.78;1676823;83;21194;-49
2022/08/16 05:11:11;;;;;;;26.00;17.05;;;;;;;17.35;99.40;93838.33;1744856;80;21057;-50
2022/08/16 05:13:42;;;;;;;19.00;16.07;;;;;;;17.44;99.31;93837.28;1752279;79;21018;-51
2022/08/16 05:16:22;;;;;;;25.27;18.12;;;;;;;17.54;98.96;93827.34;1747909;80;20963;-51
2022/08/16 05:18:53;;;;;;;34.13;14.93;;;;;;;17.61;98.51;93829.60;1747804;82;21268;-51
2022/08/16 05:21:21;;;;;;;37.30;12.43;;;;;;;17.67;97.94;93819.93;1751089;79;20957;-50
2022/08/16 05:23:50;;;;;;;26.95;14.00;;;;;;;17.70;97.65;93816.77;1728984;82;21021;-51
2022/08/16 05:26:18;;;;;;;16.32;12.60;;;;;;;17.67;97.12;93811.59;1730407;82;20955;-51
2022/08/16 05:28:47;;;;;;;18.45;12.98;;;;;;;17.69;97.11;93812.48;1693711;82;20966;-50
2022/08/16 05:31:16;;;;;;;20.77;13.90;;;;;;;17.76;97.72;93814.08;1724806;82;21920;-51
2022/08/16 05:33:44;;;;;;;16.02;11.83;;;;;;;17.88;97.49;93807.17;1741732;80;21025;-50
2022/08/16 05:36:12;;;;;;;24.07;12.70;;;;;;;17.97;97.32;93808.89;1740889;80;21471;-52
2022/08/16 05:38:42;;;;;;;20.05;12.10;;;;;;;18.10;97.00;93814.59;1737658;81;21045;-52
2022/08/16 05:41:12;;;;;;;19.07;11.30;;;;;;;18.26;95.98;93817.26;1748081;80;21536;-50
2022/08/16 05:43:41;;;;;;;21.42;11.18;;;;;;;18.42;95.32;93822.70;1740983;81;21319;-50
2022/08/16 05:46:10;;;;;;;18.25;11.57;;;;;;;18.58;94.95;93816.23;1735578;81;20996;-50
2022/08/16 05:48:38;;;;;;;21.87;11.40;;;;;;;18.68;94.30;93814.59;1675812;83;21151;-53
2022/08/16 05:51:07;;;;;;;23.57;10.95;;;;;;;18.76;93.64;93812.77;1704387;81;21073;-50
2022/08/16 05:53:35;;;;;;;18.52;12.28;;;;;;;18.84;92.93;93810.89;1657211;83;21097;-50
2022/08/16 05:56:09;;;;;;;16.57;11.57;;;;;;;18.92;92.10;93820.20;1687675;82;21209;-51
2022/08/16 05:58:38;;;;;;;19.57;11.12;;;;;;;18.99;91.06;93816.08;1676908;83;20995;-51
2022/08/16 06:01:06;;;;;;;16.95;11.60;;;;;;;19.05;90.34;93817.50;1675148;82;21069;-49
2022/08/16 06:03:35;;;;;;;18.85;10.88;;;;;;;19.09;89.77;93822.16;1689010;82;21167;-53
2022/08/16 06:06:04;;;;;;;17.30;10.98;;;;;;;19.12;89.49;93816.93;1704519;81;21593;-51
2022/08/16 06:08:33;;;;;;;23.25;12.07;;;;;;;19.17;89.36;93818.18;1717774;80;21026;-60
2022/08/16 06:11:02;;;;;;;20.88;11.88;;;;;;;19.22;89.36;93816.70;1734725;78;21092;-49
2022/08/16 06:13:30;;;;;;;14.70;11.48;;;;;;;19.29;89.01;93809.78;1734738;80;21042;-50
2022/08/16 06:15:58;;;;;;;17.57;11.73;;;;;;;19.34;88.75;93815.30;1737811;80;21026;-52
2022/08/16 06:18:26;;;;;;;15.28;11.63;;;;;;;19.41;88.79;93818.14;1719870;81;21167;-49
2022/08/16 06:20:54;;;;;;;15.03;9.90;;;;;;;19.45;88.59;93815.80;1737950;80;21218;-49
2022/08/16 06:23:22;;;;;;;14.78;11.63;;;;;;;19.43;88.43;93807.97;1710444;80;21130;-49
2022/08/16 06:25:57;;;;;;;15.72;11.30;;;;;;;19.47;87.89;93795.87;1741846;80;21025;-49
2022/08/16 06:28:27;;;;;;;21.05;10.80;;;;;;;19.48;87.15;93777.84;1701443;80;21619;-49
2022/08/16 06:30:55;;;;;;;20.97;12.20;;;;;;;19.48;86.68;93786.21;1748225;80;21187;-49
2022/08/16 06:33:24;;;;;;;16.32;10.85;;;;;;;19.52;86.45;93794.29;1743153;80;21125;-49
2022/08/16 06:35:54;;;;;;;17.25;10.95;;;;;;;19.58;86.71;93805.47;1735439;81;20994;-48
2022/08/16 06:38:22;;;;;;;14.95;10.78;;;;;;;19.63;86.81;93815.05;1744412;79;21056;-50
2022/08/16 06:40:50;;;;;;;21.93;13.18;;;;;;;19.63;86.92;93815.82;1717176;79;21046;-52
2022/08/16 06:43:19;;;;;;;20.85;11.38;;;;;;;19.64;86.75;93820.12;1673496;83;21045;-49
2022/08/16 06:45:49;;;;;;;14.95;10.10;;;;;;;19.60;86.91;93826.62;1695288;81;21166;-50
2022/08/16 06:48:22;;;;;;;16.82;11.18;;;;;;;19.59;86.76;93831.34;1697109;79;21524;-48
2022/08/16 06:50:51;;;;;;;18.62;10.53;;;;;;;19.60;86.95;93827.27;1719885;80;21100;-50
2022/08/16 06:53:20;;;;;;;18.65;11.38;;;;;;;19.58;86.70;93830.58;1702515;82;21136;-52
2022/08/16 06:55:53;;;;;;;23.18;12.30;;;;;;;19.59;86.76;93820.92;1683224;81;21098;-49
2022/08/16 06:58:23;;;;;;;18.50;12.07;;;;;;;19.58;86.68;93818.02;1714258;80;21331;-50
2022/08/16 07:00:55;;;;;;;14.10;11.30;;;;;;;19.64;87.04;93820.75;1710208;82;21100;-52
2022/08/16 07:03:24;;;;;;;15.25;10.53;;;;;;;19.74;86.64;93831.66;1718279;81;21040;-51
2022/08/16 07:05:51;;;;;;;14.90;11.30;;;;;;;19.79;86.25;93836.41;1715801;82;21028;-51
2022/08/16 07:08:22;;;;;;;13.28;10.63;;;;;;;19.85;86.22;93836.45;1694402;82;21065;-48
2022/08/16 07:10:50;;;;;;;14.80;11.05;;;;;;;19.91;85.99;93837.77;1726155;81;21855;-52
2022/08/16 07:13:19;;;;;;;13.53;10.23;;;;;;;19.94;85.69;93841.63;1715097;80;21001;-50
2022/08/16 07:15:48;;;;;;;19.27;11.45;;;;;;;20.03;85.50;93846.88;1729378;80;21088;-51
2022/08/16 07:18:22;;;;;;;15.18;11.18;;;;;;;20.08;85.22;93860.00;1726648;80;21564;-51
2022/08/16 07:20:48;;;;;;;16.25;11.28;;;;;;;20.11;84.92;93857.54;1718955;80;21056;-49
2022/08/16 07:23:17;;;;;;;18.50;11.65;;;;;;;20.14;84.46;93857.24;1723946;81;21831;-53
2022/08/16 07:25:47;;;;;;;21.23;12.28;;;;;;;20.18;84.54;93856.95;1730390;81;21088;-50
2022/08/16 07:28:16;;;;;;;16.23;12.53;;;;;;;20.17;84.39;93858.23;1748192;80;21433;-51
2022/08/16 07:30:44;;;;;;;20.77;11.78;;;;;;;20.12;84.44;93861.84;1741114;80;21119;-51
2022/08/16 07:33:16;;;;;;;23.10;12.63;;;;;;;20.06;84.39;93865.98;1737775;78;22217;-49
2022/08/16 07:35:44;;;;;;;19.73;10.88;;;;;;;19.98;84.85;93868.63;1736866;80;21138;-52
2022/08/16 07:38:14;;;;;;;17.67;11.53;;;;;;;19.89;85.71;93864.81;1758797;79;21521;-49
2022/08/16 07:40:47;;;;;;;20.50;11.33;;;;;;;19.80;86.65;93870.02;1716984;82;21022;-50
2022/08/16 07:43:16;;;;;;;19.15;11.12;;;;;;;19.71;87.50;93862.77;1715427;81;20991;-51
2022/08/16 07:45:44;;;;;;;14.47;10.32;;;;;;;19.63;88.09;93873.03;1717639;82;21195;-54
2022/08/16 07:48:12;;;;;;;13.95;10.38;;;;;;;19.59;88.46;93878.13;1696351;82;21123;-51
2022/08/16 07:50:41;;;;;;;15.15;11.45;;;;;;;19.57;88.73;93880.69;1680357;83;21500;-53
2022/08/16 07:53:10;;;;;;;13.85;10.65;;;;;;;19.54;88.89;93884.54;1719048;81;21017;-51
2022/08/16 07:55:37;;;;;;;13.58;10.80;;;;;;;19.49;89.00;93883.97;1688726;82;21477;-53
2022/08/16 07:58:05;;;;;;;13.28;11.05;;;;;;;19.43;89.21;93886.08;1713151;81;22199;-52
2022/08/16 08:00:35;;;;;;;12.85;10.93;;;;;;;19.37;89.65;93892.34;1669906;84;21957;-57
2022/08/16 08:03:04;;;;;;;11.70;9.60;;;;;;;19.32;90.13;93897.36;1690249;82;21045;-49
2022/08/16 08:05:32;;;;;;;15.03;10.25;;;;;;;19.27;90.36;93898.18;1712781;82;21529;-51
2022/08/16 08:08:00;;;;;;;16.62;11.55;;;;;;;19.22;90.96;93914.31;1725564;81;21184;-53
2022/08/16 08:10:29;;;;;;;22.90;12.60;;;;;;;19.18;91.54;93932.63;1726927;81;21068;-50
2022/08/16 08:12:59;;;;;;;23.38;12.07;;;;;;;19.08;92.25;93939.78;1711735;82;21063;-50
2022/08/16 08:15:27;;;;;;;18.10;10.75;;;;;;;18.98;93.59;93953.95;1706303;82;21072;-51
2022/08/16 08:17:55;;;;;;;19.55;10.08;;;;;;;18.94;94.42;93970.19;1740063;80;21041;-52
2022/08/16 08:20:27;;;;;;;20.08;12.25;;;;;;;18.91;94.68;93965.66;1743614;80;21053;-52
2022/08/16 08:22:57;;;;;;;15.53;12.03;;;;;;;18.85;95.62;93948.97;1712733;79;21537;-52
2022/08/16 08:25:26;;;;;;;22.32;12.78;;;;;;;18.80;96.61;93930.27;1709032;82;21140;-51
2022/08/16 08:27:55;;;;;;;15.85;11.28;;;;;;;18.79;97.34;93922.45;1672492;83;21061;-51
2022/08/16 08:30:25;;;;;;;16.93;11.33;;;;;;;18.80;97.78;93927.48;1720303;81;21472;-50
2022/08/16 08:32:54;;;;;;;20.45;12.15;;;;;;;18.79;97.42;93925.23;1670573;83;21638;-53
2022/08/16 08:35:22;;;;;;;12.55;10.15;;;;;;;18.78;97.97;93925.09;1684017;82;21018;-51
2022/08/16 08:37:50;;;;;;;18.65;12.10;;;;;;;18.76;97.89;93930.43;1737699;80;22081;-49
2022/08/16 08:40:18;;;;;;;22.22;13.10;;;;;;;18.66;98.23;93931.39;1722630;80;21038;-50
2022/08/16 08:42:46;;;;;;;17.52;12.88;;;;;;;18.61;98.92;93934.98;1764832;80;21013;-51
2022/08/16 08:45:16;;;;;;;13.90;10.48;;;;;;;18.60;99.47;93941.06;1717426;80;21557;-52
2022/08/16 08:47:45;;;;;;;11.20;9.90;;;;;;;18.60;99.97;93943.23;1724223;80;20986;-51
2022/08/16 08:50:16;;;;;;;13.80;10.20;;;;;;;18.61;100.00;93941.21;1710706;81;21073;-51
2022/08/16 08:52:43;;;;;;;12.98;10.38;;;;;;;18.64;100.00;93938.78;1701661;80;21240;-55
2022/08/16 08:55:15;;;;;;;13.50;11.35;;;;;;;18.65;100.00;93931.28;1719128;80;21356;-50
2022/08/16 08:57:45;;;;;;;22.58;14.35;;;;;;;18.61;100.00;93923.84;1735230;80;21089;-53
2022/08/16 09:00:18;;;;;;;20.55;13.98;;;;;;;18.60;100.00;93932.09;1729514;80;22140;-52
2022/08/16 09:02:46;;;;;;;21.75;16.32;;;;;;;18.61;100.00;93927.28;1730593;80;22464;-50
2022/08/16 09:05:14;;;;;;;20.52;13.93;;;;;;;18.59;100.00;93920.05;1719314;80;21135;-51
2022/08/16 09:07:44;;;;;;;35.92;20.17;;;;;;;18.58;100.00;93919.94;1724185;81;21042;-52
2022/08/16 09:10:11;;;;;;;44.33;23.73;;;;;;;18.60;100.00;93932.09;1712288;82;21631;-52
2022/08/16 09:12:39;;;;;;;28.07;18.02;;;;;;;18.60;100.00;93933.48;1665356;83;21112;-51
2022/08/16 09:15:12;;;;;;;20.08;14.30;;;;;;;18.57;100.00;93937.92;1690327;82;21129;-51
2022/08/16 09:17:42;;;;;;;17.02;12.37;;;;;;;18.52;100.00;93943.68;1718021;81;21114;-52
2022/08/16 09:20:13;;;;;;;22.87;14.78;;;;;;;18.50;100.00;93944.81;1665901;83;21099;-56
2022/08/16 09:22:42;;;;;;;21.85;13.15;;;;;;;18.50;100.00;93937.84;1723762;82;21468;-51
2022/08/16 09:25:12;;;;;;;17.77;11.25;;;;;;;18.56;100.00;93935.80;1730828;81;21109;-51
2022/08/16 09:27:41;;;;;;;20.75;13.88;;;;;;;18.57;100.00;93924.77;1682282;81;21181;-50
2022/08/16 09:30:10;;;;;;;13.60;11.55;;;;;;;18.53;100.00;93935.44;1725981;81;21056;-52
2022/08/16 09:32:38;;;;;;;14.50;10.15;;;;;;;18.52;100.00;93933.93;1695291;82;21040;-52
2022/08/16 09:35:07;;;;;;;11.25;10.05;;;;;;;18.52;100.00;93932.53;1725651;81;21037;-52
2022/08/16 09:37:34;;;;;;;15.35;10.85;;;;;;;18.49;100.00;93920.27;1702643;82;20999;-51
2022/08/16 09:40:03;;;;;;;16.50;11.88;;;;;;;18.50;100.00;93912.77;1754648;80;21820;-53
2022/08/16 09:42:31;;;;;;;18.42;11.63;;;;;;;18.52;100.00;93901.89;1736778;80;20967;-52
2022/08/16 09:44:58;;;;;;;21.70;13.85;;;;;;;18.57;100.00;93901.71;1746657;79;21005;-52
2022/08/16 09:47:27;;;;;;;31.68;16.95;;;;;;;18.61;100.00;93901.55;1743898;80;21101;-56
2022/08/16 09:49:56;;;;;;;29.23;16.62;;;;;;;18.65;100.00;93904.80;1739324;81;21061;-52
2022/08/16 09:52:24;;;;;;;36.85;17.23;;;;;;;18.73;100.00;93904.37;1744986;80;48676;-52
2022/08/16 09:54:52;;;;;;;32.93;17.15;;;;;;;18.80;100.00;93910.77;1739883;78;21018;-51
2022/08/16 09:57:20;;;;;;;33.98;15.72;;;;;;;18.92;100.00;93917.77;1726451;82;20987;-51
2022/08/16 09:59:47;;;;;;;24.45;17.35;;;;;;;19.05;100.00;93910.16;1734500;82;21014;-51
2022/08/16 10:02:15;;;;;;;32.53;20.60;;;;;;;19.17;100.00;93910.95;1761737;79;21194;-54
2022/08/16 10:04:42;;;;;;;34.10;20.92;;;;;;;19.25;100.00;93918.09;1759684;80;21445;-52
2022/08/16 10:07:10;;;;;;;26.68;20.12;;;;;;;19.24;100.00;93917.98;1714769;82;21494;-52
2022/08/16 10:09:38;;;;;;;21.80;16.82;;;;;;;19.27;100.00;93915.54;1759606;78;21010;-51
2022/08/16 10:14:53;;;;;;;18.07;14.73;;;;;;;19.53;100.00;93906.02;1746356;79;21006;-54
2022/08/16 10:17:23;;;;;;;17.62;13.18;;;;;;;19.75;100.00;93920.44;1733429;82;21136;-53
2022/08/16 10:19:51;;;;;;;14.30;12.10;;;;;;;19.88;100.00;93914.95;1738888;81;21081;-52
2022/08/16 10:22:19;;;;;;;17.37;11.95;;;;;;;20.01;100.00;93917.06;1748120;79;21114;-55
2022/08/16 10:24:46;;;;;;;11.75;10.08;;;;;;;20.12;100.00;93922.55;1727965;81;21069;-51
2022/08/16 10:27:14;;;;;;;14.55;11.28;;;;;;;20.26;100.00;93917.89;1703902;82;21050;-51
2022/08/16 10:29:41;;;;;;;15.63;11.50;;;;;;;20.35;97.81;93929.44;1694293;82;21250;-51
2022/08/16 10:32:08;;;;;;;17.57;10.05;;;;;;;20.44;96.29;93921.31;1747866;80;21041;-53
2022/08/16 10:34:36;;;;;;;13.70;9.80;;;;;;;20.53;95.39;93919.53;1723547;80;21132;-53
2022/08/16 10:37:05;;;;;;;11.63;9.58;;;;;;;20.60;93.71;93925.89;1716557;81;22255;-51
2022/08/16 10:39:33;;;;;;;14.05;10.45;;;;;;;20.63;93.18;93925.59;1716491;81;21061;-52
2022/08/16 10:42:00;;;;;;;12.37;9.65;;;;;;;20.67;92.84;93923.23;1737242;79;21209;-52
2022/08/16 10:44:28;;;;;;;16.87;10.05;;;;;;;20.76;92.45;93927.68;1739844;80;21280;-51
2022/08/16 10:46:56;;;;;;;11.18;8.45;;;;;;;20.86;92.17;93923.21;1724618;80;21386;-51
2022/08/16 10:49:24;;;;;;;12.85;10.08;;;;;;;20.98;91.08;93920.34;1717772;82;21123;-53
2022/08/16 10:51:54;;;;;;;11.03;9.08;;;;;;;21.07;90.68;93927.69;1678042;82;21553;-53
2022/08/16 10:54:21;;;;;;;12.00;8.98;;;;;;;21.21;90.99;93927.06;1708694;82;23238;-54
2022/08/16 10:56:49;;;;;;;11.80;9.58;;;;;;;21.35;89.80;93925.80;1719081;82;21542;-50
2022/08/16 10:59:17;;;;;;;15.13;8.90;;;;;;;21.48;88.09;93916.77;1711348;82;21034;-52
2022/08/16 11:01:44;;;;;;;10.40;9.03;;;;;;;21.61;86.28;93916.01;1736883;81;21117;-53
2022/08/16 11:04:13;;;;;;;11.03;9.00;;;;;;;21.69;85.57;93914.11;1724412;81;21013;-52
2022/08/16 11:06:41;;;;;;;9.03;8.13;;;;;;;21.82;85.81;93904.31;1740725;80;21553;-51
2022/08/16 11:09:08;;;;;;;13.72;8.48;;;;;;;21.94;84.02;93908.38;1750208;80;21041;-53
2022/08/16 11:11:35;;;;;;;14.43;9.18;;;;;;;22.00;83.71;93911.17;1723398;79;21059;-52
2022/08/16 11:14:03;;;;;;;14.43;9.05;;;;;;;22.13;83.68;93907.69;1730463;81;21062;-55
2022/08/16 11:16:30;;;;;;;8.68;7.80;;;;;;;22.35;82.62;93904.42;1730172;80;21037;-51
2022/08/16 11:18:58;;;;;;;9.90;8.53;;;;;;;22.48;80.80;93900.19;1738334;78;21212;-52
2022/08/16 11:21:26;;;;;;;12.88;8.90;;;;;;;22.54;79.15;93900.83;1714809;80;21855;-53
2022/08/16 11:23:53;;;;;;;12.55;8.05;;;;;;;22.69;79.52;93905.17;1732526;82;21013;-52
2022/08/16 11:26:21;;;;;;;11.93;8.33;;;;;;;22.89;78.35;93899.48;1711219;81;21166;-53
2022/08/16 11:28:49;;;;;;;13.15;7.78;;;;;;;23.07;76.68;93899.28;1733051;79;21107;-53